createdAt,value
2023-04-20T03:55:28.109Z,9.53
2023-04-20T03:57:55.026Z,9.74
2023-04-20T04:00:21.647Z,9.54
2023-04-20T04:02:48.298Z,9.52
2023-04-20T04:05:15.206Z,9.52
2023-04-20T04:07:41.831Z,9.53
2023-04-20T04:10:09.311Z,9.54
2023-04-20T04:12:35.835Z,9.54
2023-04-20T04:15:03.200Z,9.56
2023-04-20T04:17:29.799Z,9.56
2023-04-20T04:19:56.364Z,9.56
2023-04-20T04:22:22.908Z,9.59
2023-04-20T04:24:49.537Z,9.60
2023-04-20T04:27:16.342Z,9.62
2023-04-20T04:29:43.020Z,9.89
2023-04-20T04:32:09.773Z,9.68
2023-04-20T04:34:36.310Z,9.92
2023-04-20T04:37:02.860Z,9.71
2023-04-20T04:39:29.947Z,9.71
2023-04-20T04:41:57.860Z,9.70
2023-04-20T04:44:26.180Z,9.71
2023-04-20T04:46:52.767Z,9.73
2023-04-20T04:49:20.694Z,9.74
2023-04-20T04:51:48.158Z,9.74
2023-04-20T04:54:14.837Z,9.78
2023-04-20T04:56:41.468Z,9.85
2023-04-20T04:59:08.065Z,9.95
2023-04-20T05:01:34.653Z,10.08
2023-04-20T05:04:01.646Z,10.20
2023-04-20T05:06:28.310Z,10.34
2023-04-20T05:08:54.852Z,10.51
2023-04-20T05:11:21.521Z,10.68
2023-04-20T05:13:48.739Z,10.84
2023-04-20T05:16:15.398Z,10.95
2023-04-20T05:18:41.988Z,11.06
2023-04-20T05:21:08.561Z,11.11
2023-04-20T05:23:35.104Z,11.13
2023-04-20T05:26:01.641Z,11.13
2023-04-20T05:28:28.169Z,11.11
2023-04-20T05:30:57.640Z,11.07
2023-04-20T05:33:24.945Z,11.02
2023-04-20T05:35:55.385Z,10.98
2023-04-20T05:38:22.133Z,10.91
2023-04-20T05:40:50.267Z,11.18
2023-04-20T05:43:18.736Z,10.88
2023-04-20T05:45:46.694Z,10.82
2023-04-20T05:48:13.333Z,10.78
2023-04-20T05:50:40.485Z,10.76
2023-04-20T05:53:07.129Z,10.72
2023-04-20T05:55:33.675Z,10.72
2023-04-20T05:58:00.769Z,10.68
2023-04-20T06:00:27.410Z,10.64
2023-04-20T06:02:55.156Z,10.63
2023-04-20T06:05:22.199Z,10.61
2023-04-20T06:07:48.884Z,10.59
2023-04-20T06:10:15.493Z,10.61
2023-04-20T06:12:42.050Z,10.60
2023-04-20T06:15:10.975Z,10.60
2023-04-20T06:17:41.175Z,10.61
2023-04-20T06:20:09.891Z,10.59
2023-04-20T06:22:37.264Z,10.60
2023-04-20T06:25:04.143Z,10.61
2023-04-20T06:27:30.702Z,10.62
2023-04-20T06:29:57.242Z,10.62
2023-04-20T06:32:23.808Z,10.65
2023-04-20T06:34:51.236Z,10.68
2023-04-20T06:37:17.845Z,10.68
2023-04-20T06:39:44.454Z,10.72
2023-04-20T06:42:11.038Z,10.75
2023-04-20T06:44:37.615Z,10.77
2023-04-20T06:47:04.227Z,10.81
2023-04-20T06:49:30.801Z,10.85
2023-04-20T06:51:57.345Z,10.88
2023-04-20T06:54:24.050Z,10.91
2023-04-20T06:56:50.697Z,10.93
2023-04-20T06:59:18.991Z,10.97
2023-04-20T07:01:45.826Z,10.99
2023-04-20T07:04:13.249Z,11.01
2023-04-20T07:06:39.926Z,11.01
2023-04-20T07:09:06.717Z,11.03
2023-04-20T07:11:33.177Z,11.30
2023-04-20T07:13:59.824Z,11.06
2023-04-20T07:16:26.416Z,11.06
2023-04-20T07:18:53.019Z,11.07
2023-04-20T07:21:19.593Z,11.07
2023-04-20T07:23:46.703Z,11.07
2023-04-20T07:26:13.251Z,11.07
2023-04-20T07:28:39.777Z,11.10
2023-04-20T07:31:06.380Z,11.10
2023-04-20T07:33:35.725Z,11.12
2023-04-20T07:36:02.283Z,11.11
2023-04-20T07:38:28.890Z,11.12
2023-04-20T07:40:55.511Z,11.13
2023-04-20T07:43:22.072Z,11.13
2023-04-20T07:45:48.745Z,11.12
2023-04-20T07:48:15.446Z,11.14
2023-04-20T07:50:42.233Z,11.14
2023-04-20T07:53:08.776Z,11.40
2023-04-20T07:55:35.350Z,11.15
2023-04-20T07:58:02.206Z,11.13
2023-04-20T08:00:28.864Z,11.12
2023-04-20T08:02:55.625Z,11.13
2023-04-20T08:05:23.060Z,11.42
2023-04-20T08:07:49.813Z,11.21
2023-04-20T08:10:16.685Z,11.21
2023-04-20T08:12:43.198Z,11.48
2023-04-20T08:15:10.544Z,11.29
2023-04-20T08:17:37.127Z,11.31
2023-04-20T08:20:06.031Z,11.36
2023-04-20T08:22:33.667Z,11.39
2023-04-20T08:25:00.354Z,11.44
2023-04-20T08:27:29.821Z,11.48
2023-04-20T08:29:56.838Z,11.51
2023-04-20T08:32:26.718Z,11.53
2023-04-20T08:34:54.209Z,11.57
2023-04-20T08:37:21.043Z,11.62
2023-04-20T08:39:47.562Z,11.90
2023-04-20T08:42:16.006Z,11.70
2023-04-20T08:44:43.222Z,11.71
2023-04-20T08:47:11.972Z,11.74
2023-04-20T08:49:41.950Z,11.73
2023-04-20T08:52:11.042Z,11.75
2023-04-20T08:54:46.056Z,11.77
2023-04-20T08:57:19.759Z,11.80
2023-04-20T08:59:46.400Z,11.82
2023-04-20T09:02:14.480Z,11.86
2023-04-20T09:04:41.687Z,11.89
2023-04-20T09:07:20.882Z,11.97
2023-04-20T09:09:58.478Z,12.02
2023-04-20T09:12:25.555Z,11.99
2023-04-20T09:14:52.832Z,12.02
2023-04-20T09:17:31.846Z,12.13
2023-04-20T09:19:58.441Z,12.11
2023-04-20T09:22:32.196Z,12.22
2023-04-20T09:24:59.286Z,12.21
2023-04-20T09:27:26.647Z,12.25
2023-04-20T09:30:01.261Z,12.35
2023-04-20T09:32:29.155Z,12.35
2023-04-20T09:34:56.556Z,12.38
2023-04-20T09:37:23.224Z,12.40
2023-04-20T09:39:50.079Z,12.44
2023-04-20T09:42:16.953Z,12.71
2023-04-20T09:44:44.552Z,12.51
2023-04-20T09:47:21.349Z,12.58
2023-04-20T09:49:48.022Z,12.57
2023-04-20T09:52:18.936Z,12.65
2023-04-20T09:54:47.404Z,12.64
2023-04-20T09:57:15.219Z,12.68
2023-04-20T09:59:47.135Z,12.77
2023-04-20T10:02:14.772Z,12.78
2023-04-20T10:04:55.673Z,12.93
2023-04-20T10:07:30.782Z,12.97
2023-04-20T10:10:09.499Z,13.03
2023-04-20T10:12:56.908Z,13.10
2023-04-20T10:15:25.163Z,13.04
2023-04-20T10:17:51.954Z,13.04
2023-04-20T10:20:29.085Z,13.12
2023-04-20T10:23:11.740Z,13.16
2023-04-20T10:25:38.586Z,13.08
2023-04-20T10:28:09.804Z,13.08
2023-04-20T10:30:38.213Z,13.10
2023-04-20T10:33:12.972Z,13.16
2023-04-20T10:35:55.348Z,13.23
2023-04-20T10:38:48.574Z,13.34
2023-04-20T10:41:15.237Z,13.30
2023-04-20T10:43:44.432Z,13.58
2023-04-20T10:46:19.562Z,13.47
2023-04-20T10:48:50.899Z,13.49
2023-04-20T10:51:18.239Z,13.48
2023-04-20T10:53:45.070Z,13.54
2023-04-20T10:56:12.215Z,13.57
2023-04-20T10:58:39.751Z,13.62
2023-04-20T11:01:06.741Z,13.68
2023-04-20T11:03:37.969Z,13.74
2023-04-20T11:06:04.947Z,13.79
2023-04-20T11:08:35.932Z,14.12
2023-04-20T11:11:02.524Z,13.95
2023-04-20T11:13:29.411Z,13.99
2023-04-20T11:15:56.088Z,14.00
2023-04-20T11:18:22.809Z,14.27
2023-04-20T11:20:54.376Z,14.10
2023-04-20T11:23:23.121Z,14.05
2023-04-20T11:25:57.249Z,14.09
2023-04-20T11:28:24.309Z,14.06
2023-04-20T11:30:51.170Z,14.15
2023-04-20T11:33:29.345Z,14.33
2023-04-20T11:35:57.908Z,14.44
2023-04-20T11:38:32.049Z,14.66
2023-04-20T11:41:04.624Z,14.85
2023-04-20T11:43:35.959Z,15.12
2023-04-20T11:46:03.226Z,15.30
2023-04-20T11:48:33.142Z,15.53
2023-04-20T11:50:59.900Z,15.73
2023-04-20T11:53:26.986Z,15.94
2023-04-20T11:55:53.652Z,16.10
2023-04-20T11:58:20.267Z,16.41
2023-04-20T12:00:46.900Z,16.35
2023-04-20T12:03:13.684Z,16.61
2023-04-20T12:05:40.676Z,16.48
2023-04-20T12:08:08.530Z,16.42
2023-04-20T12:10:35.391Z,16.34
2023-04-20T12:13:02.033Z,16.30
2023-04-20T12:15:28.608Z,16.57
2023-04-20T12:17:55.487Z,16.37
2023-04-20T12:20:22.175Z,16.36
2023-04-20T12:22:48.904Z,16.42
2023-04-20T12:25:15.519Z,16.70
2023-04-20T12:27:42.354Z,16.64
2023-04-20T12:30:09.555Z,16.78
2023-04-20T12:32:36.332Z,16.88
2023-04-20T12:35:03.020Z,16.98
2023-04-20T12:37:29.578Z,17.27
2023-04-20T12:39:56.261Z,17.16
2023-04-20T12:42:22.812Z,17.41
2023-04-20T12:44:49.459Z,17.22
2023-04-20T12:47:16.110Z,17.47
2023-04-20T12:49:42.748Z,17.26
2023-04-20T12:52:09.250Z,17.51
2023-04-20T12:54:35.866Z,17.31
2023-04-20T12:57:02.720Z,17.56
2023-04-20T12:59:29.550Z,17.38
2023-04-20T13:01:56.241Z,17.32
2023-04-20T13:04:23.527Z,17.27
2023-04-20T13:06:50.666Z,17.20
2023-04-20T13:09:20.058Z,17.47
2023-04-20T13:11:46.906Z,17.12
2023-04-20T13:14:13.497Z,17.02
2023-04-20T13:16:40.368Z,17.28
2023-04-20T13:19:06.996Z,16.93
2023-04-20T13:21:33.644Z,16.83
2023-04-20T13:24:00.168Z,17.09
2023-04-20T13:26:27.009Z,16.72
2023-04-20T13:28:54.406Z,16.62
2023-04-20T13:31:21.075Z,16.54
2023-04-20T13:33:47.673Z,16.80
2023-04-20T13:36:14.334Z,16.43
2023-04-20T13:38:40.831Z,16.70
2023-04-20T13:41:07.473Z,16.33
2023-04-20T13:43:34.254Z,16.59
2023-04-20T13:46:00.912Z,16.20
2023-04-20T13:48:27.452Z,16.47
2023-04-20T13:50:54.371Z,16.13
2023-04-20T13:53:22.115Z,16.07
2023-04-20T15:53:27.840Z,14.24
2023-04-20T15:55:54.749Z,13.86
2023-04-20T15:58:21.593Z,13.76
2023-04-20T16:00:48.353Z,13.70
2023-04-20T16:03:15.023Z,14.00
2023-04-20T16:05:41.910Z,13.71
2023-04-20T16:08:08.793Z,13.67
2023-04-20T16:10:35.564Z,13.64
2023-04-20T16:13:03.789Z,13.94
2023-04-20T16:15:30.849Z,13.64
2023-04-20T16:17:58.802Z,13.62
2023-04-20T16:20:25.664Z,13.57
2023-04-20T16:22:52.501Z,13.58
2023-04-20T16:25:23.300Z,13.57
2023-04-20T16:27:51.693Z,13.57
2023-04-20T16:30:19.256Z,13.59
2023-04-20T16:32:46.262Z,13.58
2023-04-20T16:35:13.059Z,13.61
2023-04-20T16:37:39.710Z,13.94
2023-04-20T16:40:08.247Z,13.68
2023-04-20T16:42:36.082Z,13.67
2023-04-20T16:45:02.889Z,13.65
2023-04-20T16:47:29.629Z,13.65
2023-04-20T16:49:56.263Z,13.99
2023-04-20T16:52:23.031Z,13.71
2023-04-20T16:54:49.561Z,14.01
2023-04-20T16:57:16.472Z,13.71
2023-04-20T16:59:45.664Z,13.67
2023-04-20T17:02:12.841Z,13.65
2023-04-20T17:04:39.764Z,13.63
2023-04-20T17:07:06.456Z,13.95
2023-04-20T17:09:33.171Z,13.66
2023-04-20T17:11:59.914Z,13.95
2023-04-20T17:14:26.671Z,13.65
2023-04-20T17:16:54.465Z,13.94
2023-04-20T17:19:21.192Z,13.66
2023-04-20T17:21:47.900Z,13.62
2023-04-20T17:24:14.530Z,13.89
2023-04-20T17:26:41.284Z,13.61
2023-04-20T17:29:07.889Z,13.90
2023-04-20T17:31:34.663Z,13.60
2023-04-20T17:34:01.412Z,13.56
2023-04-20T17:36:28.289Z,13.87
2023-04-20T17:38:55.014Z,13.58
2023-04-20T17:41:21.567Z,13.87
2023-04-20T17:43:50.956Z,13.61
2023-04-20T17:46:17.749Z,13.53
2023-04-20T17:48:44.495Z,13.52
2023-04-20T17:51:12.911Z,13.82
2023-04-20T17:53:39.554Z,13.55
2023-04-20T17:56:09.077Z,13.53
2023-04-20T17:58:35.776Z,13.51
2023-04-20T18:01:02.526Z,13.81
2023-04-20T18:03:29.506Z,13.55
2023-04-20T18:05:56.274Z,13.52
2023-04-20T18:08:23.435Z,13.52
2023-04-20T18:10:50.155Z,13.49
2023-04-20T18:13:16.770Z,13.82
2023-04-20T18:15:43.958Z,13.55
2023-04-20T18:18:10.753Z,13.52
2023-04-20T18:20:37.390Z,13.82
2023-04-20T18:23:04.107Z,13.54
2023-04-20T18:25:30.653Z,13.84
2023-04-20T18:27:57.407Z,13.56
2023-04-20T18:30:24.015Z,13.85
2023-04-20T18:32:50.861Z,13.56
2023-04-20T18:35:19.552Z,13.54
2023-04-20T18:37:46.268Z,13.53
2023-04-20T18:40:14.787Z,13.84
2023-04-20T18:42:42.816Z,13.57
2023-04-20T18:45:09.697Z,13.86
2023-04-20T18:47:36.390Z,13.57
2023-04-20T18:50:03.296Z,13.85
2023-04-20T18:52:32.806Z,13.60
2023-04-20T18:54:59.463Z,13.54
2023-04-20T18:57:28.647Z,13.84
2023-04-20T18:59:56.464Z,13.57
2023-04-20T19:02:23.844Z,13.56
2023-04-20T19:04:53.711Z,13.54
2023-04-20T19:07:20.567Z,13.53
2023-04-20T19:09:47.367Z,13.53
2023-04-20T19:12:14.123Z,13.54
2023-04-20T19:14:40.773Z,13.86
2023-04-20T19:17:07.874Z,13.59
2023-04-20T19:19:34.995Z,13.57
2023-04-20T19:22:03.646Z,13.57
2023-04-20T19:24:32.205Z,13.57
2023-04-20T19:26:59.363Z,13.57
2023-04-20T19:29:26.174Z,13.59
2023-04-20T19:31:52.904Z,13.60
2023-04-20T19:34:19.654Z,13.91
2023-04-20T19:36:46.542Z,13.64
2023-04-20T19:39:14.378Z,13.93
2023-04-20T19:41:41.195Z,13.68
2023-04-20T19:44:09.990Z,13.93
2023-04-20T19:46:38.763Z,13.65
2023-04-20T19:49:05.790Z,13.63
2023-04-20T19:51:33.073Z,13.60
2023-04-20T19:54:01.558Z,13.59
2023-04-20T19:56:28.212Z,13.59
2023-04-20T19:58:54.733Z,13.91
2023-04-20T20:01:21.539Z,13.63
2023-04-20T20:03:48.337Z,13.62
2023-04-20T20:06:15.107Z,13.59
2023-04-20T20:08:41.868Z,13.60
2023-04-20T20:11:09.562Z,13.90
2023-04-20T20:13:36.208Z,13.62
2023-04-20T20:16:02.984Z,13.59
2023-04-20T20:18:29.662Z,13.57
2023-04-20T20:20:56.379Z,13.54
2023-04-20T20:23:22.919Z,13.87
2023-04-20T20:25:49.500Z,13.56
2023-04-20T20:28:16.299Z,13.56
2023-04-20T20:30:45.429Z,13.52
2023-04-20T20:33:12.846Z,13.50
2023-04-20T20:35:40.067Z,13.49
2023-04-20T20:38:07.919Z,13.47
2023-04-20T20:40:35.699Z,13.45
2023-04-20T20:43:02.676Z,13.45
2023-04-20T20:45:30.482Z,13.42
2023-04-20T20:47:57.933Z,13.41
2023-04-20T20:50:26.516Z,13.41
2023-04-20T20:52:53.174Z,13.39
2023-04-20T20:55:19.880Z,13.37
2023-04-20T20:57:46.618Z,13.65
2023-04-20T21:00:13.965Z,13.35
2023-04-20T21:02:40.797Z,13.29
2023-04-20T21:05:07.858Z,13.26
2023-04-20T21:07:34.571Z,13.23
2023-04-20T21:10:01.183Z,13.51
2023-04-20T21:12:27.839Z,13.21
2023-04-20T21:14:54.603Z,13.48
2023-04-20T21:17:21.240Z,13.17
2023-04-20T21:19:47.892Z,13.13
2023-04-20T21:22:14.543Z,13.06
2023-04-20T21:24:41.536Z,13.05
2023-04-20T21:27:08.335Z,13.00
2023-04-20T21:29:34.805Z,13.29
2023-04-20T21:32:01.799Z,13.01
2023-04-20T21:34:28.706Z,12.94
2023-04-20T21:36:55.357Z,12.91
2023-04-20T21:39:22.073Z,12.91
2023-04-20T21:41:48.713Z,12.87
2023-04-20T21:44:15.301Z,12.86
2023-04-20T21:46:42.153Z,12.84
2023-04-20T21:49:08.849Z,12.80
2023-04-20T21:51:35.354Z,13.11
